Time;durP1;ratioP1;P1;durP2;ratioP2;P2;SDS_P1;SDS_P2;PMS_P1;PMS_P2;Temp;Humidity;BMP_temperature;BMP_pressure;BME280_temperature;BME280_humidity;BME280_pressure;Samples;Min_cycle;Max_cycle;Signal;HPM_P1;HPM_P2
2022/08/14 00:00:15;;;;;;;8.90;7.75;;;;;;;;;;5051200;28;20199;-65
2022/08/14 00:02:41;;;;;;;10.43;7.75;;;;;;;;;;5050700;28;20658;-65
2022/08/14 00:05:13;;;;;;;8.48;7.57;;;;;;;;;;5052809;28;20260;-65
2022/08/14 00:07:39;;;;;;;9.05;8.15;;;;;;;;;;5065027;28;20297;-65
2022/08/14 00:10:07;;;;;;;10.68;8.10;;;;;;;;;;5066507;28;20671;-65
2022/08/14 00:12:35;;;;;;;8.48;7.50;;;;;;;;;;5054171;28;20713;-65
2022/08/14 00:15:04;;;;;;;9.43;8.23;;;;;;;;;;5057831;28;20544;-65
2022/08/14 00:17:29;;;;;;;9.32;7.60;;;;;;;;;;5068880;28;20181;-65
2022/08/14 00:19:55;;;;;;;10.25;8.32;;;;;;;;;;5065522;28;20641;-65
2022/08/14 00:22:21;;;;;;;10.63;7.63;;;;;;;;;;5068434;28;20190;-65
2022/08/14 00:24:46;;;;;;;12.02;7.40;;;;;;;;;;5059465;28;20181;-66
2022/08/14 00:27:11;;;;;;;9.07;7.43;;;;;;;;;;5048547;28;20221;-65
2022/08/14 00:29:37;;;;;;;11.02;7.90;;;;;;;;;;5069257;28;20275;-65
2022/08/14 00:32:04;;;;;;;9.00;7.57;;;;;;;;;;5065498;28;20231;-65
2022/08/14 00:34:29;;;;;;;8.38;7.57;;;;;;;;;;5051925;28;20177;-65
2022/08/14 00:36:54;;;;;;;8.95;8.05;;;;;;;;;;5048251;28;20644;-65
2022/08/14 00:39:20;;;;;;;10.25;8.23;;;;;;;;;;5055127;28;20192;-65
2022/08/14 00:41:46;;;;;;;18.58;8.32;;;;;;;;;;5062703;28;20639;-65
2022/08/14 00:44:12;;;;;;;9.02;8.13;;;;;;;;;;5060969;28;20211;-65
2022/08/14 00:46:38;;;;;;;10.63;8.45;;;;;;;;;;5060121;28;20641;-65
2022/08/14 00:49:04;;;;;;;9.35;8.40;;;;;;;;;;5065310;28;20189;-65
2022/08/14 00:51:32;;;;;;;8.60;7.80;;;;;;;;;;5055814;28;20173;-65
2022/08/14 00:53:58;;;;;;;10.38;8.38;;;;;;;;;;5048386;28;20661;-65
2022/08/14 00:56:24;;;;;;;10.43;8.10;;;;;;;;;;5058814;28;20241;-65
2022/08/14 00:58:49;;;;;;;11.57;8.55;;;;;;;;;;5067556;28;20181;-65
2022/08/14 01:01:17;;;;;;;9.52;8.57;;;;;;;;;;5063339;28;20548;-65
2022/08/14 01:03:43;;;;;;;10.80;9.32;;;;;;;;;;5058323;28;20486;-65
2022/08/14 01:06:11;;;;;;;10.40;8.90;;;;;;;;;;5067839;28;20216;-65
2022/08/14 01:08:37;;;;;;;12.25;8.52;;;;;;;;;;5071974;28;20196;-65
2022/08/14 01:11:04;;;;;;;11.07;8.52;;;;;;;;;;5057319;28;20204;-65
2022/08/14 01:13:35;;;;;;;10.07;8.38;;;;;;;;;;5061643;28;20211;-65
2022/08/14 01:16:04;;;;;;;10.30;9.30;;;;;;;;;;5055297;28;20173;-65
2022/08/14 01:21:35;;;;;;;11.35;9.07;;;;;;;;;;5036126;28;20220;-65
2022/08/14 01:24:01;;;;;;;14.40;9.13;;;;;;;;;;5051840;28;20558;-65
2022/08/14 01:26:28;;;;;;;11.65;8.25;;;;;;;;;;5065485;28;20213;-65
2022/08/14 01:28:56;;;;;;;10.75;8.68;;;;;;;;;;5064273;28;20231;-66
2022/08/14 01:31:29;;;;;;;9.75;8.75;;;;;;;;;;5066679;28;20256;-66
2022/08/14 01:33:58;;;;;;;10.52;8.70;;;;;;;;;;5052459;28;20196;-66
2022/08/14 01:36:26;;;;;;;11.30;9.32;;;;;;;;;;5051460;28;20177;-66
2022/08/14 01:38:56;;;;;;;11.32;9.55;;;;;;;;;;5060920;28;20316;-65
2022/08/14 01:41:23;;;;;;;12.48;9.02;;;;;;;;;;5071355;28;20181;-65
2022/08/14 01:43:52;;;;;;;11.20;8.88;;;;;;;;;;5071352;28;20192;-65
2022/08/14 01:46:23;;;;;;;11.32;9.38;;;;;;;;;;5070494;28;20191;-65
2022/08/14 01:48:50;;;;;;;11.65;9.82;;;;;;;;;;5059872;28;20215;-65
2022/08/14 01:51:21;;;;;;;10.50;9.38;;;;;;;;;;5061582;28;20181;-66
2022/08/14 01:53:53;;;;;;;10.55;9.43;;;;;;;;;;5069815;28;20176;-65
2022/08/14 01:56:20;;;;;;;10.20;9.10;;;;;;;;;;5059804;28;20189;-65
2022/08/14 01:58:50;;;;;;;12.27;9.38;;;;;;;;;;5065483;28;20256;-65
2022/08/14 02:01:18;;;;;;;11.73;9.90;;;;;;;;;;5051929;28;20280;-65
2022/08/14 02:03:43;;;;;;;11.15;9.82;;;;;;;;;;5051191;28;20211;-65
2022/08/14 02:06:10;;;;;;;10.63;9.52;;;;;;;;;;5052989;28;20181;-66
2022/08/14 02:08:37;;;;;;;11.80;9.63;;;;;;;;;;5063365;28;20288;-65
2022/08/14 02:11:16;;;;;;;10.40;8.65;;;;;;;;;;5050150;28;20208;-66
2022/08/14 02:13:43;;;;;;;13.38;10.02;;;;;;;;;;5050891;28;20872;-66
2022/08/14 02:16:09;;;;;;;11.30;9.50;;;;;;;;;;5051566;28;20177;-66
2022/08/14 02:18:35;;;;;;;13.65;10.40;;;;;;;;;;5051332;28;20560;-66
2022/08/14 02:21:03;;;;;;;11.30;9.88;;;;;;;;;;5050447;28;20257;-66
2022/08/14 02:23:29;;;;;;;10.77;9.50;;;;;;;;;;5061798;28;20177;-65
2022/08/14 02:25:54;;;;;;;10.68;9.57;;;;;;;;;;5067483;28;20180;-65
2022/08/14 02:28:20;;;;;;;12.02;9.85;;;;;;;;;;5057929;28;20228;-66
2022/08/14 02:30:45;;;;;;;12.63;10.30;;;;;;;;;;5055572;28;20213;-65
2022/08/14 02:33:10;;;;;;;11.50;10.10;;;;;;;;;;5050111;28;20212;-65
2022/08/14 02:35:39;;;;;;;11.75;9.82;;;;;;;;;;5061828;28;20215;-66
2022/08/14 02:38:05;;;;;;;11.80;9.55;;;;;;;;;;5064966;28;20185;-66
2022/08/14 02:40:31;;;;;;;10.80;9.70;;;;;;;;;;5051011;28;20553;-65
2022/08/14 02:42:57;;;;;;;11.82;9.82;;;;;;;;;;5064890;28;20292;-65
2022/08/14 02:45:23;;;;;;;11.43;10.23;;;;;;;;;;5070927;28;20264;-65
2022/08/14 02:47:48;;;;;;;11.52;10.23;;;;;;;;;;5070371;28;20201;-65
2022/08/14 02:50:15;;;;;;;13.70;10.75;;;;;;;;;;5050357;28;20193;-66
2022/08/14 02:52:41;;;;;;;11.60;10.20;;;;;;;;;;5054749;28;20203;-65
2022/08/14 02:55:06;;;;;;;12.73;10.60;;;;;;;;;;5051724;28;20190;-65
2022/08/14 02:57:32;;;;;;;11.40;10.20;;;;;;;;;;5067394;28;20203;-66
2022/08/14 02:59:58;;;;;;;14.20;10.25;;;;;;;;;;5057034;28;20259;-66
2022/08/14 03:02:23;;;;;;;12.05;10.82;;;;;;;;;;5061454;28;20181;-65
2022/08/14 03:04:48;;;;;;;11.63;10.30;;;;;;;;;;5062438;28;20654;-65
2022/08/14 03:07:15;;;;;;;13.05;10.18;;;;;;;;;;5066639;28;20216;-65
2022/08/14 03:09:41;;;;;;;13.48;10.80;;;;;;;;;;5064770;28;20188;-65
2022/08/14 03:12:07;;;;;;;13.52;10.65;;;;;;;;;;5048702;28;20559;-66
2022/08/14 03:14:38;;;;;;;12.15;9.98;;;;;;;;;;5050213;28;20189;-66
2022/08/14 03:17:05;;;;;;;12.55;11.25;;;;;;;;;;5049855;28;20177;-65
2022/08/14 03:19:30;;;;;;;15.18;10.90;;;;;;;;;;5050586;28;20238;-65
2022/08/14 03:21:56;;;;;;;15.70;11.30;;;;;;;;;;5063534;28;20181;-66
2022/08/14 03:24:21;;;;;;;14.43;12.00;;;;;;;;;;5049361;28;20204;-65
2022/08/14 03:26:48;;;;;;;12.15;10.85;;;;;;;;;;5052059;28;20584;-65
2022/08/14 03:29:19;;;;;;;13.88;11.48;;;;;;;;;;5049606;28;20185;-66
2022/08/14 03:31:48;;;;;;;15.25;10.98;;;;;;;;;;5060246;28;20200;-66
2022/08/14 03:34:13;;;;;;;13.70;10.98;;;;;;;;;;5066306;28;20271;-66
2022/08/14 03:36:39;;;;;;;12.60;11.30;;;;;;;;;;5049479;28;20281;-66
2022/08/14 03:39:06;;;;;;;17.33;11.95;;;;;;;;;;5060159;28;20567;-66
2022/08/14 03:41:32;;;;;;;13.10;11.00;;;;;;;;;;5049130;28;20565;-66
2022/08/14 03:44:00;;;;;;;13.85;11.57;;;;;;;;;;5061751;28;20177;-66
2022/08/14 03:46:33;;;;;;;15.57;12.27;;;;;;;;;;5063500;28;20185;-66
2022/08/14 03:49:03;;;;;;;13.48;11.40;;;;;;;;;;5048934;28;20193;-66
2022/08/14 03:51:30;;;;;;;12.68;11.38;;;;;;;;;;5048811;28;20174;-66
2022/08/14 03:53:57;;;;;;;14.57;11.82;;;;;;;;;;5056642;28;20254;-65
2022/08/14 03:56:25;;;;;;;14.63;12.52;;;;;;;;;;5060869;28;20234;-65
2022/08/14 03:58:57;;;;;;;12.70;11.40;;;;;;;;;;5068172;28;20215;-65
2022/08/14 04:01:24;;;;;;;13.82;11.68;;;;;;;;;;5057632;28;20681;-65
2022/08/14 04:03:52;;;;;;;17.55;12.15;;;;;;;;;;5048994;28;20496;-66
2022/08/14 04:06:21;;;;;;;15.50;11.20;;;;;;;;;;5062821;28;20184;-66
2022/08/14 04:08:48;;;;;;;16.50;12.23;;;;;;;;;;5064781;28;20197;-66
2022/08/14 04:11:14;;;;;;;15.80;12.05;;;;;;;;;;5048719;28;20267;-66
2022/08/14 04:13:41;;;;;;;16.85;12.43;;;;;;;;;;5062358;28;20612;-66
2022/08/14 04:16:22;;;;;;;13.88;12.25;;;;;;;;;;5049478;28;20647;-66
2022/08/14 04:18:51;;;;;;;14.15;12.43;;;;;;;;;;5048261;28;20182;-66
2022/08/14 04:21:17;;;;;;;16.05;12.02;;;;;;;;;;5058109;28;20185;-65
2022/08/14 04:23:45;;;;;;;14.93;12.38;;;;;;;;;;5052425;28;20560;-66
2022/08/14 04:26:12;;;;;;;14.73;12.50;;;;;;;;;;5047516;28;20260;-66
2022/08/14 04:28:39;;;;;;;16.70;12.07;;;;;;;;;;5064187;28;20196;-66
2022/08/14 04:31:05;;;;;;;13.68;11.55;;;;;;;;;;5067878;28;20193;-65
2022/08/14 04:33:31;;;;;;;14.30;11.75;;;;;;;;;;5058377;28;20177;-65
2022/08/14 04:35:57;;;;;;;14.93;12.02;;;;;;;;;;5053399;28;20318;-65
2022/08/14 04:43:50;;;;;;;13.93;11.50;;;;;;;;;;5048199;28;20255;-66
2022/08/14 04:46:17;;;;;;;15.25;12.43;;;;;;;;;;5059011;28;20174;-66
2022/08/14 04:48:43;;;;;;;15.07;12.25;;;;;;;;;;5049030;28;20229;-66
2022/08/14 04:51:11;;;;;;;13.88;12.27;;;;;;;;;;5046597;28;20213;-66
2022/08/14 04:53:41;;;;;;;15.70;12.38;;;;;;;;;;5061707;28;20173;-66
2022/08/14 04:56:06;;;;;;;15.00;12.43;;;;;;;;;;5067740;28;20184;-67
2022/08/14 04:58:33;;;;;;;15.73;12.45;;;;;;;;;;5068582;28;20623;-67
2022/08/14 05:01:00;;;;;;;14.07;12.15;;;;;;;;;;5059922;28;20546;-66
2022/08/14 05:03:28;;;;;;;14.00;12.10;;;;;;;;;;5051884;28;20640;-66
2022/08/14 05:05:56;;;;;;;15.85;12.18;;;;;;;;;;5057837;28;20185;-66
2022/08/14 05:08:22;;;;;;;18.02;12.57;;;;;;;;;;5065367;28;20224;-66
2022/08/14 05:10:54;;;;;;;12.55;11.10;;;;;;;;;;5059276;28;20197;-66
2022/08/14 05:13:23;;;;;;;13.57;12.02;;;;;;;;;;5063566;28;20188;-66
2022/08/14 05:15:51;;;;;;;13.52;12.10;;;;;;;;;;5060165;28;20285;-66
2022/08/14 05:18:18;;;;;;;16.67;12.63;;;;;;;;;;5052227;28;20668;-66
2022/08/14 05:20:47;;;;;;;15.00;13.43;;;;;;;;;;5048721;28;20181;-66
2022/08/14 05:23:14;;;;;;;19.30;13.10;;;;;;;;;;5061364;28;20183;-67
2022/08/14 05:25:40;;;;;;;16.13;12.73;;;;;;;;;;5066502;28;20219;-66
2022/08/14 05:28:35;;;;;;;16.88;14.07;;;;;;;;;;5068042;28;20221;-66
2022/08/14 05:31:05;;;;;;;15.10;13.15;;;;;;;;;;5045841;28;20217;-66
2022/08/14 05:33:33;;;;;;;15.38;13.23;;;;;;;;;;5054022;28;20770;-66
2022/08/14 05:36:00;;;;;;;14.52;12.60;;;;;;;;;;5067291;28;20582;-66
2022/08/14 05:38:32;;;;;;;14.07;12.52;;;;;;;;;;5055279;28;20181;-66
2022/08/14 05:41:01;;;;;;;17.20;12.50;;;;;;;;;;5060201;28;20181;-66
2022/08/14 05:43:26;;;;;;;14.82;12.65;;;;;;;;;;5048609;28;20377;-66
2022/08/14 05:45:51;;;;;;;13.50;12.10;;;;;;;;;;5066508;28;20562;-66
2022/08/14 05:48:17;;;;;;;14.27;12.77;;;;;;;;;;5062620;28;20205;-66
2022/08/14 05:50:43;;;;;;;14.02;11.23;;;;;;;;;;5050720;28;20181;-66
2022/08/14 05:53:08;;;;;;;14.57;12.25;;;;;;;;;;5054845;28;20215;-67
2022/08/14 05:55:33;;;;;;;14.52;11.95;;;;;;;;;;5050470;28;20272;-66
2022/08/14 05:58:02;;;;;;;14.05;11.82;;;;;;;;;;5062818;28;20211;-66
2022/08/14 06:00:31;;;;;;;14.32;11.57;;;;;;;;;;5052425;28;20178;-66
2022/08/14 06:02:58;;;;;;;14.02;12.30;;;;;;;;;;5066109;28;20199;-67
2022/08/14 06:05:23;;;;;;;14.25;12.07;;;;;;;;;;5065762;28;20196;-66
2022/08/14 06:07:49;;;;;;;13.02;11.55;;;;;;;;;;5058446;28;20413;-67
2022/08/14 06:10:14;;;;;;;14.00;11.35;;;;;;;;;;5052670;28;20259;-66
2022/08/14 06:12:39;;;;;;;15.43;12.57;;;;;;;;;;5061131;28;20881;-66
2022/08/14 06:15:07;;;;;;;13.07;10.85;;;;;;;;;;5056533;28;20193;-66
2022/08/14 06:17:45;;;;;;;16.23;12.27;;;;;;;;;;5050817;28;20684;-67
2022/08/14 06:20:12;;;;;;;13.95;11.60;;;;;;;;;;5064439;28;20207;-67
2022/08/14 06:22:40;;;;;;;15.80;11.57;;;;;;;;;;5051315;28;20683;-66
2022/08/14 06:25:07;;;;;;;13.30;11.32;;;;;;;;;;5050263;28;20185;-66
2022/08/14 06:27:50;;;;;;;13.88;11.82;;;;;;;;;;5051256;28;20247;-66
2022/08/14 06:30:28;;;;;;;13.15;11.77;;;;;;;;;;5050836;28;20596;-67
2022/08/14 06:32:54;;;;;;;13.65;11.45;;;;;;;;;;5053637;28;20255;-67
2022/08/14 06:35:21;;;;;;;13.65;11.07;;;;;;;;;;5063963;28;20606;-67
2022/08/14 06:37:50;;;;;;;12.52;11.15;;;;;;;;;;5052244;28;20181;-67
2022/08/14 06:40:27;;;;;;;12.77;11.10;;;;;;;;;;5063864;28;20177;-67
2022/08/14 06:42:55;;;;;;;12.20;10.98;;;;;;;;;;5061286;28;20195;-67
2022/08/14 06:45:20;;;;;;;12.40;10.45;;;;;;;;;;5051385;28;20182;-67
2022/08/14 06:47:46;;;;;;;11.95;10.68;;;;;;;;;;5064120;28;20208;-66
2022/08/14 06:50:15;;;;;;;12.75;10.20;;;;;;;;;;5056957;28;20185;-67
2022/08/14 06:52:41;;;;;;;11.25;9.38;;;;;;;;;;5060338;28;20187;-66
2022/08/14 06:55:08;;;;;;;12.77;10.60;;;;;;;;;;5063647;28;20275;-66
2022/08/14 06:57:37;;;;;;;13.23;9.32;;;;;;;;;;5050628;28;20186;-66
2022/08/14 07:00:08;;;;;;;12.77;9.98;;;;;;;;;;5049878;28;20242;-67
2022/08/14 07:08:03;;;;;;;11.50;9.27;;;;;;;;;;5065046;28;20208;-66
2022/08/14 07:10:29;;;;;;;10.20;8.85;;;;;;;;;;5068013;28;20540;-67
2022/08/14 07:12:54;;;;;;;13.07;8.95;;;;;;;;;;5049783;28;20215;-66
2022/08/14 07:15:19;;;;;;;10.55;9.45;;;;;;;;;;5066574;28;20242;-67
2022/08/14 07:17:46;;;;;;;9.55;8.48;;;;;;;;;;5060261;28;20173;-66
2022/08/14 07:20:12;;;;;;;11.65;8.63;;;;;;;;;;5053458;28;20224;-67
2022/08/14 07:22:37;;;;;;;9.93;8.93;;;;;;;;;;5066595;28;20204;-67
2022/08/14 07:25:03;;;;;;;10.10;8.77;;;;;;;;;;5062690;28;20185;-67
2022/08/14 07:27:28;;;;;;;9.70;8.70;;;;;;;;;;5062767;28;20244;-66
2022/08/14 07:29:53;;;;;;;9.75;7.85;;;;;;;;;;5061652;28;20226;-66
2022/08/14 07:32:19;;;;;;;8.85;7.95;;;;;;;;;;5068049;28;20200;-65
2022/08/14 07:34:47;;;;;;;9.88;8.25;;;;;;;;;;5055966;28;20177;-67
2022/08/14 07:37:13;;;;;;;10.73;8.23;;;;;;;;;;5051024;28;20276;-66
2022/08/14 07:39:38;;;;;;;10.18;7.70;;;;;;;;;;5059259;28;20264;-66
2022/08/14 07:42:04;;;;;;;8.70;7.80;;;;;;;;;;5069036;28;20279;-66
2022/08/14 07:44:29;;;;;;;8.60;7.63;;;;;;;;;;5068557;28;20201;-66
2022/08/14 07:46:54;;;;;;;11.82;7.90;;;;;;;;;;5057389;28;20648;-66
2022/08/14 07:49:21;;;;;;;8.50;7.38;;;;;;;;;;5053033;28;20180;-65
2022/08/14 07:51:46;;;;;;;9.07;7.88;;;;;;;;;;5059192;28;20230;-65
2022/08/14 07:54:12;;;;;;;8.27;7.47;;;;;;;;;;5061764;28;20208;-65
2022/08/14 07:56:38;;;;;;;8.23;7.53;;;;;;;;;;5068878;28;20245;-65
2022/08/14 07:59:04;;;;;;;8.43;7.20;;;;;;;;;;5049625;28;20169;-66
2022/08/14 08:01:31;;;;;;;9.90;7.50;;;;;;;;;;5059701;28;20492;-66
2022/08/14 08:03:58;;;;;;;8.45;7.70;;;;;;;;;;5069042;28;20192;-66
2022/08/14 08:06:24;;;;;;;9.38;7.35;;;;;;;;;;5055235;28;20276;-66
2022/08/14 08:08:52;;;;;;;9.07;7.03;;;;;;;;;;5062855;28;20604;-68
2022/08/14 08:11:18;;;;;;;11.52;7.43;;;;;;;;;;5057618;28;20185;-66
2022/08/14 08:13:43;;;;;;;9.93;7.22;;;;;;;;;;5049146;28;20519;-66
2022/08/14 08:16:09;;;;;;;9.77;7.63;;;;;;;;;;5048273;28;20591;-66
2022/08/14 08:18:34;;;;;;;8.88;7.82;;;;;;;;;;5051460;28;20252;-66
2022/08/14 08:21:00;;;;;;;8.07;7.38;;;;;;;;;;5066596;28;20176;-66
2022/08/14 08:23:28;;;;;;;9.38;7.57;;;;;;;;;;5054560;28;20177;-66
2022/08/14 08:25:57;;;;;;;8.30;7.47;;;;;;;;;;5048681;28;20220;-66
2022/08/14 08:28:26;;;;;;;9.32;7.70;;;;;;;;;;5062002;28;20630;-66
2022/08/14 08:31:00;;;;;;;8.23;7.22;;;;;;;;;;5063039;28;20170;-65
2022/08/14 08:33:27;;;;;;;10.57;7.68;;;;;;;;;;5049160;28;20217;-66
2022/08/14 08:35:57;;;;;;;8.80;7.22;;;;;;;;;;5052922;28;20187;-68
2022/08/14 08:38:25;;;;;;;8.02;6.70;;;;;;;;;;5065259;28;20232;-67
2022/08/14 08:40:53;;;;;;;8.50;6.97;;;;;;;;;;5052586;28;20647;-66
2022/08/14 08:43:23;;;;;;;9.05;7.03;;;;;;;;;;5068360;28;20548;-66
2022/08/14 08:46:02;;;;;;;7.53;6.93;;;;;;;;;;5054609;28;20272;-66
2022/08/14 08:48:50;;;;;;;8.93;7.13;;;;;;;;;;5069072;28;20200;-68
2022/08/14 08:51:27;;;;;;;9.57;6.95;;;;;;;;;;5048477;28;20192;-67
2022/08/14 08:54:04;;;;;;;8.85;6.63;;;;;;;;;;5058431;28;20239;-66
2022/08/14 08:56:40;;;;;;;7.05;6.45;;;;;;;;;;5048380;28;20180;-67
2022/08/14 08:59:16;;;;;;;7.63;6.78;;;;;;;;;;5054584;28;20184;-66
2022/08/14 09:01:58;;;;;;;8.45;6.07;;;;;;;;;;5058034;28;20539;-66
2022/08/14 09:04:29;;;;;;;7.82;6.10;;;;;;;;;;5054823;28;20231;-66
2022/08/14 09:06:55;;;;;;;8.45;6.82;;;;;;;;;;5062017;28;20185;-66
2022/08/14 09:09:24;;;;;;;7.20;6.40;;;;;;;;;;5068465;28;20184;-65
2022/08/14 09:11:53;;;;;;;7.72;6.47;;;;;;;;;;5065105;28;20724;-64
2022/08/14 09:14:20;;;;;;;7.05;6.32;;;;;;;;;;5057709;28;20194;-65
2022/08/14 09:16:46;;;;;;;7.05;6.35;;;;;;;;;;5064941;28;20394;-65
2022/08/14 09:19:11;;;;;;;8.82;6.38;;;;;;;;;;5056271;28;20184;-66
2022/08/14 09:21:38;;;;;;;7.28;6.68;;;;;;;;;;5057698;28;20221;-65
2022/08/14 09:24:05;;;;;;;6.97;6.28;;;;;;;;;;5055231;28;20186;-65
2022/08/14 09:26:30;;;;;;;8.23;5.90;;;;;;;;;;5051355;28;20241;-64
2022/08/14 09:28:56;;;;;;;6.85;6.13;;;;;;;;;;5065788;28;20196;-64
2022/08/14 09:31:22;;;;;;;9.25;6.20;;;;;;;;;;5061343;28;20295;-65
2022/08/14 09:34:06;;;;;;;7.78;6.07;;;;;;;;;;5057521;28;20185;-65
2022/08/14 09:37:09;;;;;;;6.45;5.85;;;;;;;;;;5059594;28;20189;-65
2022/08/14 09:40:02;;;;;;;6.60;5.85;;;;;;;;;;5070220;28;20267;-66
2022/08/14 09:42:48;;;;;;;9.68;6.35;;;;;;;;;;5053652;28;20189;-66
2022/08/14 09:45:17;;;;;;;6.97;6.28;;;;;;;;;;5062856;28;20180;-66
2022/08/14 09:47:52;;;;;;;6.22;5.72;;;;;;;;;;5053568;28;20205;-65
2022/08/14 09:50:20;;;;;;;6.22;5.40;;;;;;;;;;5051996;28;20181;-67
2022/08/14 09:52:53;;;;;;;6.95;6.25;;;;;;;;;;5052033;28;20189;-66
2022/08/14 09:55:20;;;;;;;6.88;5.45;;;;;;;;;;5067567;28;20322;-65
2022/08/14 09:57:46;;;;;;;6.57;5.90;;;;;;;;;;5061247;28;20184;-66
2022/08/14 10:00:13;;;;;;;7.07;5.35;;;;;;;;;;5067814;28;20192;-66
2022/08/14 10:02:50;;;;;;;6.20;5.70;;;;;;;;;;5069129;28;20184;-66
2022/08/14 10:05:28;;;;;;;5.95;5.35;;;;;;;;;;5056727;28;20177;-66
2022/08/14 10:07:53;;;;;;;5.97;5.40;;;;;;;;;;5066124;28;20224;-66
2022/08/14 10:10:37;;;;;;;6.15;5.65;;;;;;;;;;5071415;28;20261;-66
2022/08/14 10:13:05;;;;;;;7.70;5.93;;;;;;;;;;5058973;28;20571;-67
2022/08/14 10:15:35;;;;;;;6.22;5.63;;;;;;;;;;5051174;28;20181;-67
2022/08/14 10:18:13;;;;;;;8.20;5.43;;;;;;;;;;5051957;28;20672;-66
2022/08/14 10:21:00;;;;;;;8.25;6.07;;;;;;;;;;5069277;28;20188;-69
2022/08/14 10:23:28;;;;;;;6.07;5.47;;;;;;;;;;5056532;28;20266;-66
2022/08/14 10:26:03;;;;;;;8.30;5.63;;;;;;;;;;5071263;28;20196;-68
2022/08/14 10:28:42;;;;;;;6.10;5.60;;;;;;;;;;5050562;28;20229;-67
2022/08/14 10:31:22;;;;;;;6.75;6.15;;;;;;;;;;5070477;28;20200;-68
2022/08/14 10:34:10;;;;;;;6.60;6.03;;;;;;;;;;5060310;28;20176;-67
2022/08/14 10:36:38;;;;;;;6.70;6.10;;;;;;;;;;5070047;28;20227;-67
2022/08/14 10:39:07;;;;;;;5.88;5.38;;;;;;;;;;5053032;28;20492;-68
2022/08/14 10:41:39;;;;;;;7.00;6.13;;;;;;;;;;5061064;28;20201;-68
2022/08/14 10:44:07;;;;;;;6.07;5.47;;;;;;;;;;5067396;28;20524;-67
2022/08/14 10:46:46;;;;;;;6.00;5.50;;;;;;;;;;5070861;28;20180;-66
2022/08/14 10:49:25;;;;;;;5.70;5.28;;;;;;;;;;5067535;28;20269;-67
2022/08/14 10:52:07;;;;;;;5.70;5.20;;;;;;;;;;5056490;28;20180;-65
2022/08/14 10:54:41;;;;;;;6.50;5.20;;;;;;;;;;5051068;28;20213;-65
2022/08/14 10:57:17;;;;;;;7.00;5.68;;;;;;;;;;5051274;28;20567;-65
2022/08/14 10:59:54;;;;;;;7.70;6.07;;;;;;;;;;5053736;28;20196;-65
2022/08/14 11:02:35;;;;;;;5.68;5.18;;;;;;;;;;5060242;28;20620;-65
2022/08/14 11:05:16;;;;;;;6.25;5.65;;;;;;;;;;5052723;28;20582;-65
2022/08/14 11:07:54;;;;;;;7.88;5.70;;;;;;;;;;5067773;28;20758;-67
2022/08/14 11:10:20;;;;;;;6.13;5.60;;;;;;;;;;5052538;28;20177;-67
2022/08/14 11:12:49;;;;;;;6.38;5.78;;;;;;;;;;5050379;28;20189;-67
2022/08/14 11:15:18;;;;;;;6.28;5.68;;;;;;;;;;5050508;28;20180;-68
2022/08/14 11:17:47;;;;;;;5.90;5.40;;;;;;;;;;5051571;28;20173;-67
2022/08/14 11:20:15;;;;;;;6.68;5.18;;;;;;;;;;5068752;28;20184;-64
2022/08/14 11:22:41;;;;;;;6.60;6.00;;;;;;;;;;5059721;28;20185;-65
2022/08/14 11:25:14;;;;;;;6.03;5.43;;;;;;;;;;5055483;28;20613;-67
2022/08/14 11:27:44;;;;;;;7.68;6.25;;;;;;;;;;5049877;28;20331;-67
2022/08/14 11:30:15;;;;;;;6.78;6.18;;;;;;;;;;5049937;28;20259;-67
2022/08/14 11:32:44;;;;;;;5.78;5.28;;;;;;;;;;5049601;28;20266;-67
2022/08/14 11:35:14;;;;;;;5.82;5.22;;;;;;;;;;5050038;28;20216;-66
2022/08/14 11:37:51;;;;;;;6.18;5.50;;;;;;;;;;5049663;28;20174;-68
2022/08/14 11:40:17;;;;;;;6.22;5.63;;;;;;;;;;5050318;28;20181;-66
2022/08/14 11:42:46;;;;;;;6.47;5.40;;;;;;;;;;5067777;28;20286;-66
2022/08/14 11:45:13;;;;;;;6.22;5.50;;;;;;;;;;5069795;28;20181;-67
2022/08/14 11:47:39;;;;;;;5.68;5.13;;;;;;;;;;5051427;28;20197;-66
2022/08/14 11:50:17;;;;;;;5.57;5.18;;;;;;;;;;5059549;28;20303;-66
2022/08/14 11:52:43;;;;;;;6.15;5.55;;;;;;;;;;5055984;28;20200;-67
2022/08/14 11:55:12;;;;;;;6.15;5.65;;;;;;;;;;5064485;28;20184;-66
2022/08/14 11:57:39;;;;;;;5.57;5.07;;;;;;;;;;5069923;28;20200;-67
2022/08/14 12:00:08;;;;;;;6.13;5.53;;;;;;;;;;5068866;28;20231;-66
2022/08/14 12:02:34;;;;;;;5.80;5.20;;;;;;;;;;5054874;28;21021;-66
2022/08/14 12:04:59;;;;;;;6.03;5.47;;;;;;;;;;5048239;28;20189;-67
2022/08/14 12:07:26;;;;;;;6.47;5.60;;;;;;;;;;5060695;28;20269;-66
2022/08/14 12:09:54;;;;;;;6.22;5.63;;;;;;;;;;5073880;28;20467;-67
2022/08/14 12:12:22;;;;;;;5.85;5.20;;;;;;;;;;5069201;28;20181;-65
2022/08/14 12:14:58;;;;;;;5.68;5.10;;;;;;;;;;5064538;28;20187;-67
2022/08/14 12:17:30;;;;;;;5.13;4.70;;;;;;;;;;5048795;28;20227;-66
2022/08/14 12:19:58;;;;;;;6.03;5.38;;;;;;;;;;5049558;28;20279;-69
2022/08/14 12:22:44;;;;;;;9.00;5.63;;;;;;;;;;5048614;28;20657;-66
2022/08/14 12:25:12;;;;;;;7.72;5.80;;;;;;;;;;5049035;28;20185;-65
2022/08/14 12:27:42;;;;;;;9.55;5.30;;;;;;;;;;5061113;28;20225;-70
2022/08/14 12:30:08;;;;;;;7.40;5.13;;;;;;;;;;5049415;28;20199;-65
2022/08/14 12:32:46;;;;;;;6.20;4.80;;;;;;;;;;5061872;28;20430;-64
2022/08/14 12:35:12;;;;;;;5.05;4.65;;;;;;;;;;5048360;28;20188;-66
2022/08/14 12:37:45;;;;;;;5.10;4.70;;;;;;;;;;5052896;28;20323;-65
2022/08/14 12:40:13;;;;;;;5.65;5.10;;;;;;;;;;5055941;28;20200;-65
2022/08/14 12:42:39;;;;;;;6.75;5.40;;;;;;;;;;5060638;28;20195;-65
2022/08/14 12:45:06;;;;;;;5.45;5.03;;;;;;;;;;5059251;28;20183;-65
2022/08/14 12:47:31;;;;;;;5.25;4.75;;;;;;;;;;5064022;28;20276;-69
2022/08/14 12:49:57;;;;;;;6.43;5.20;;;;;;;;;;5068118;28;20631;-66
2022/08/14 12:52:30;;;;;;;5.40;4.97;;;;;;;;;;5059833;28;20177;-66
2022/08/14 12:55:00;;;;;;;5.30;4.80;;;;;;;;;;5055743;28;20184;-65
2022/08/14 12:57:42;;;;;;;5.30;4.90;;;;;;;;;;5060979;28;20167;-65
2022/08/14 13:00:11;;;;;;;5.78;4.60;;;;;;;;;;5074373;28;20184;-65
2022/08/14 13:02:38;;;;;;;6.05;4.97;;;;;;;;;;5065730;28;20188;-72
2022/08/14 13:05:04;;;;;;;5.28;4.80;;;;;;;;;;5057019;28;20187;-66
2022/08/14 13:07:29;;;;;;;5.47;4.97;;;;;;;;;;5070664;28;20256;-68
2022/08/14 13:09:56;;;;;;;5.20;4.70;;;;;;;;;;5064990;28;20185;-67
2022/08/14 13:12:26;;;;;;;9.45;5.20;;;;;;;;;;5072798;28;20237;-68
2022/08/14 13:14:55;;;;;;;5.63;5.13;;;;;;;;;;5074526;28;20397;-67
2022/08/14 13:17:23;;;;;;;5.22;4.82;;;;;;;;;;5060491;28;20300;-67
2022/08/14 13:19:50;;;;;;;5.47;4.97;;;;;;;;;;5075257;28;20184;-65
2022/08/14 13:22:17;;;;;;;5.65;4.70;;;;;;;;;;5057504;28;20682;-65
2022/08/14 13:24:43;;;;;;;5.30;4.80;;;;;;;;;;5063521;28;20238;-65
2022/08/14 13:27:11;;;;;;;4.93;4.57;;;;;;;;;;5053678;28;20626;-67
2022/08/14 13:29:40;;;;;;;6.90;4.88;;;;;;;;;;5063987;28;20196;-66
2022/08/14 13:32:08;;;;;;;5.22;4.65;;;;;;;;;;5059426;28;20247;-65
2022/08/14 13:34:34;;;;;;;5.32;4.88;;;;;;;;;;5063635;28;20259;-67
2022/08/14 13:37:00;;;;;;;5.10;4.60;;;;;;;;;;5070399;28;20172;-66
2022/08/14 13:39:28;;;;;;;5.03;4.53;;;;;;;;;;5054778;28;20276;-69
2022/08/14 13:41:53;;;;;;;4.70;4.30;;;;;;;;;;5054804;28;20181;-68
2022/08/14 13:44:22;;;;;;;4.90;4.50;;;;;;;;;;5068759;28;20384;-67
2022/08/14 13:46:48;;;;;;;6.28;4.40;;;;;;;;;;5074376;28;20579;-67
2022/08/14 13:49:14;;;;;;;5.32;4.45;;;;;;;;;;5071471;28;20201;-68
2022/08/14 13:51:45;;;;;;;5.88;3.92;;;;;;;;;;5058421;28;20203;-66
2022/08/14 13:54:15;;;;;;;4.65;4.25;;;;;;;;;;5054649;28;20272;-65
2022/08/14 13:56:41;;;;;;;4.60;4.20;;;;;;;;;;5068349;28;20180;-66
2022/08/14 13:59:07;;;;;;;5.65;4.40;;;;;;;;;;5060311;28;20187;-66
2022/08/14 14:01:33;;;;;;;4.28;3.90;;;;;;;;;;5064536;28;20547;-66
2022/08/14 14:04:02;;;;;;;4.93;4.50;;;;;;;;;;5073895;28;20182;-67
2022/08/14 14:06:28;;;;;;;4.65;4.35;;;;;;;;;;5059894;28;20177;-67
2022/08/14 14:08:56;;;;;;;5.05;4.65;;;;;;;;;;5063421;28;20246;-66
2022/08/14 14:11:25;;;;;;;4.93;4.43;;;;;;;;;;5053615;28;20208;-67
2022/08/14 14:13:52;;;;;;;5.05;4.18;;;;;;;;;;5055843;28;20256;-65
2022/08/14 14:16:18;;;;;;;4.40;4.10;;;;;;;;;;5059723;28;20234;-65
2022/08/14 14:18:48;;;;;;;4.68;4.28;;;;;;;;;;5067046;28;20624;-66
2022/08/14 14:21:19;;;;;;;4.38;4.07;;;;;;;;;;5064759;28;20187;-65
2022/08/14 14:23:45;;;;;;;4.20;3.90;;;;;;;;;;5067326;28;20183;-65
2022/08/14 14:26:15;;;;;;;5.45;4.25;;;;;;;;;;5061067;28;20216;-66
2022/08/14 14:28:49;;;;;;;4.57;4.18;;;;;;;;;;5065217;28;20200;-66
2022/08/14 14:31:20;;;;;;;4.38;4.07;;;;;;;;;;5062079;28;20201;-66
2022/08/14 14:33:49;;;;;;;4.35;4.05;;;;;;;;;;5051615;28;20400;-67
2022/08/14 14:36:23;;;;;;;4.75;4.35;;;;;;;;;;5062993;28;20234;-67
2022/08/14 14:39:00;;;;;;;5.05;4.65;;;;;;;;;;5063670;28;20184;-67
2022/08/14 14:41:28;;;;;;;4.72;4.32;;;;;;;;;;5051426;28;20618;-67
2022/08/14 14:43:56;;;;;;;4.78;4.40;;;;;;;;;;5063091;28;20263;-66
2022/08/14 14:46:23;;;;;;;5.10;4.65;;;;;;;;;;5058195;28;20180;-66
2022/08/14 14:48:48;;;;;;;4.85;4.45;;;;;;;;;;5056584;28;20197;-66
2022/08/14 14:51:15;;;;;;;5.03;3.83;;;;;;;;;;5067630;28;20176;-67
2022/08/14 14:53:42;;;;;;;5.38;4.40;;;;;;;;;;5050037;28;20268;-67
2022/08/14 14:56:09;;;;;;;4.50;4.15;;;;;;;;;;5050149;28;20181;-67